createdAt,value
2018-11-06T00:01:14.520Z,83.94
2018-11-06T00:03:45.989Z,84.35
2018-11-06T00:06:13.748Z,84.62
2018-11-06T00:08:41.493Z,83.55
2018-11-06T00:11:10.162Z,84.11
2018-11-06T00:13:38.269Z,83.43
2018-11-06T00:16:06.741Z,83.36
2018-11-06T00:18:34.469Z,82.33
2018-11-06T00:21:02.220Z,84.00
2018-11-06T00:23:29.996Z,83.70
2018-11-06T00:25:57.683Z,83.97
2018-11-06T00:28:25.409Z,83.02
2018-11-06T00:30:53.170Z,84.06
2018-11-06T00:33:20.941Z,84.25
2018-11-06T00:35:48.645Z,81.84
2018-11-06T00:38:16.337Z,81.31
2018-11-06T00:40:44.034Z,83.19
2018-11-06T00:43:11.717Z,83.90
2018-11-06T00:45:39.448Z,81.79
2018-11-06T00:48:07.157Z,81.82
2018-11-06T00:50:34.846Z,83.01
2018-11-06T00:53:02.573Z,82.70
2018-11-06T00:55:30.217Z,82.83
2018-11-06T00:57:57.913Z,83.60
2018-11-06T01:00:25.654Z,84.46
2018-11-06T01:02:53.357Z,85.65
2018-11-06T01:05:21.102Z,85.47
2018-11-06T01:07:48.868Z,84.21
2018-11-06T01:10:16.737Z,85.79
2018-11-06T01:12:44.396Z,84.06
2018-11-06T01:15:13.189Z,84.04
2018-11-06T01:17:41.749Z,83.74
2018-11-06T01:20:12.210Z,86.22
2018-11-06T01:22:39.978Z,86.75
2018-11-06T01:25:08.724Z,86.10
2018-11-06T01:27:36.662Z,85.30
2018-11-06T01:30:08.327Z,84.02
2018-11-06T01:32:36.201Z,83.50
2018-11-06T01:35:04.770Z,82.66
2018-11-06T01:37:32.520Z,82.56
2018-11-06T01:40:01.272Z,85.76
2018-11-06T01:42:28.982Z,85.31
2018-11-06T01:44:56.689Z,85.55
2018-11-06T01:47:24.437Z,85.87
2018-11-06T01:49:52.125Z,86.57
2018-11-06T01:52:19.820Z,85.09
2018-11-06T01:54:47.538Z,84.01
2018-11-06T01:57:15.252Z,83.01
2018-11-06T02:02:22.990Z,85.04
2018-11-06T02:04:50.635Z,87.18
2018-11-06T02:07:18.311Z,86.53
2018-11-06T02:09:45.994Z,86.62
2018-11-06T02:12:13.708Z,86.56
2018-11-06T02:14:41.329Z,86.01
2018-11-06T02:17:09.143Z,86.70
2018-11-06T02:19:36.923Z,86.65
2018-11-06T02:22:04.788Z,85.58
2018-11-06T02:24:32.473Z,87.48
2018-11-06T02:27:00.159Z,86.89
2018-11-06T02:29:27.828Z,86.71
2018-11-06T02:31:55.552Z,87.41
2018-11-06T02:34:24.017Z,88.73
2018-11-06T02:36:51.733Z,88.47
2018-11-06T02:39:19.473Z,88.43
2018-11-06T02:41:47.138Z,87.98
2018-11-06T02:44:14.885Z,88.62
2018-11-06T02:46:42.678Z,88.30
2018-11-06T02:49:10.427Z,88.51
2018-11-06T02:51:38.092Z,89.41
2018-11-06T02:54:05.860Z,89.94
2018-11-06T02:56:33.569Z,89.96
2018-11-06T02:59:01.369Z,89.12
2018-11-06T03:01:29.069Z,89.08
2018-11-06T03:03:56.756Z,88.52
2018-11-06T03:06:24.474Z,87.72
2018-11-06T03:08:52.204Z,87.00
2018-11-06T03:11:19.852Z,88.39
2018-11-06T03:13:47.485Z,87.99
2018-11-06T03:16:15.221Z,87.00
2018-11-06T03:18:42.976Z,86.75
2018-11-06T03:21:10.695Z,86.42
2018-11-06T03:23:38.422Z,87.61
2018-11-06T03:26:06.261Z,87.67
2018-11-06T03:28:33.956Z,87.48
2018-11-06T03:31:01.676Z,86.82
2018-11-06T03:33:29.353Z,86.51
2018-11-06T03:35:57.015Z,87.01
2018-11-06T03:38:24.760Z,88.56
2018-11-06T03:40:52.583Z,88.62
2018-11-06T03:43:24.244Z,88.20
2018-11-06T03:45:52.029Z,89.09
2018-11-06T03:48:19.691Z,89.28
2018-11-06T03:50:47.486Z,88.34
2018-11-06T03:53:15.184Z,88.08
2018-11-06T03:55:42.871Z,88.61
2018-11-06T03:58:10.604Z,88.47
2018-11-06T04:00:38.265Z,87.56
2018-11-06T04:03:06.081Z,87.01
2018-11-06T04:05:33.794Z,86.15
2018-11-06T04:08:01.524Z,85.27
2018-11-06T04:10:29.270Z,84.81
2018-11-06T04:12:56.956Z,84.45
2018-11-06T04:15:24.728Z,84.24
2018-11-06T04:17:52.414Z,85.72
2018-11-06T04:20:20.065Z,86.89
2018-11-06T04:22:47.811Z,86.90
2018-11-06T04:25:15.604Z,87.94
2018-11-06T04:27:43.352Z,88.82
2018-11-06T04:30:12.484Z,89.07
2018-11-06T04:32:40.941Z,89.48
2018-11-06T04:35:09.194Z,89.02
2018-11-06T04:37:37.577Z,89.41
2018-11-06T04:40:07.317Z,89.07
2018-11-06T04:42:35.213Z,88.07
2018-11-06T04:45:03.040Z,87.58
2018-11-06T04:47:30.729Z,87.89
2018-11-06T04:49:58.449Z,88.27
2018-11-06T04:52:26.108Z,88.63
2018-11-06T04:54:53.917Z,88.65
2018-11-06T04:57:21.604Z,87.05
2018-11-06T04:59:49.375Z,87.35
2018-11-06T05:02:17.342Z,87.78
2018-11-06T05:04:44.969Z,88.33
2018-11-06T05:07:12.732Z,88.51
2018-11-06T05:09:40.388Z,87.92
2018-11-06T05:12:08.144Z,88.24
2018-11-06T05:14:35.816Z,87.66
2018-11-06T05:17:03.508Z,87.38
2018-11-06T05:19:31.241Z,88.27
2018-11-06T05:21:59.174Z,88.21
2018-11-06T05:24:26.872Z,87.19
2018-11-06T05:26:55.484Z,87.73
2018-11-06T05:29:23.148Z,88.00
2018-11-06T05:31:50.810Z,88.07
2018-11-06T05:34:18.427Z,88.28
2018-11-06T05:36:46.078Z,87.82
2018-11-06T05:39:13.923Z,87.07
2018-11-06T05:41:41.573Z,87.45
2018-11-06T05:44:09.321Z,87.33
2018-11-06T05:46:36.984Z,87.55
2018-11-06T05:49:04.699Z,87.25
2018-11-06T05:51:36.088Z,87.38
2018-11-06T05:54:03.979Z,87.35
2018-11-06T05:56:31.613Z,87.33
2018-11-06T05:58:59.309Z,87.14
2018-11-06T06:01:27.420Z,87.90
2018-11-06T06:03:55.105Z,87.52
2018-11-06T06:06:22.809Z,87.30
2018-11-06T06:08:50.537Z,88.15
2018-11-06T06:11:18.432Z,87.50
2018-11-06T06:13:45.937Z,88.12
2018-11-06T06:16:13.704Z,88.92
2018-11-06T06:18:41.482Z,88.35
2018-11-06T06:21:09.249Z,88.72
2018-11-06T06:23:36.986Z,87.48
2018-11-06T06:26:04.781Z,87.06
2018-11-06T06:28:32.753Z,87.01
2018-11-06T06:31:00.381Z,86.74
2018-11-06T06:33:28.052Z,87.71
2018-11-06T06:35:55.733Z,88.29
2018-11-06T06:38:23.437Z,87.66
2018-11-06T06:40:51.152Z,87.03
2018-11-06T06:43:18.751Z,87.25
2018-11-06T06:45:46.504Z,87.17
2018-11-06T06:48:14.265Z,87.81
2018-11-06T06:50:42.039Z,88.15
2018-11-06T06:53:09.816Z,88.02
2018-11-06T06:55:37.525Z,86.61
2018-11-06T06:58:05.190Z,87.09
2018-11-06T07:00:32.922Z,86.73
2018-11-06T07:03:00.589Z,86.59
2018-11-06T07:05:28.379Z,87.00
2018-11-06T07:07:56.105Z,87.90
2018-11-06T07:10:23.820Z,88.55
2018-11-06T07:12:51.833Z,88.64
2018-11-06T07:15:20.712Z,88.35
2018-11-06T07:17:49.243Z,88.53
2018-11-06T07:20:22.409Z,88.19
2018-11-06T07:22:50.144Z,88.27
2018-11-06T07:25:17.888Z,88.25
2018-11-06T07:27:46.536Z,87.11
2018-11-06T07:30:16.944Z,87.31
2018-11-06T07:32:45.035Z,86.73
2018-11-06T07:35:13.471Z,86.48
2018-11-06T07:37:41.510Z,87.23
2018-11-06T07:40:11.001Z,86.97
2018-11-06T07:42:38.995Z,87.21
2018-11-06T07:45:10.023Z,86.77
2018-11-06T07:47:38.557Z,86.89
2018-11-06T07:50:08.311Z,87.21
2018-11-06T07:52:37.648Z,87.79
2018-11-06T07:55:08.876Z,87.56
2018-11-06T07:57:37.596Z,87.35
2018-11-06T08:00:12.861Z,85.83
2018-11-06T08:02:41.937Z,85.78
2018-11-06T08:05:10.469Z,85.58
2018-11-06T08:07:38.869Z,85.58
2018-11-06T08:10:08.584Z,85.90
2018-11-06T08:12:37.338Z,84.88
2018-11-06T08:15:06.904Z,85.51
2018-11-06T08:17:35.401Z,84.06
2018-11-06T08:20:07.169Z,83.56
2018-11-06T08:22:35.990Z,84.60
2018-11-06T08:25:04.815Z,85.41
2018-11-06T08:27:33.629Z,84.88
2018-11-06T08:30:02.198Z,86.06
2018-11-06T08:32:31.065Z,85.69
2018-11-06T08:34:58.758Z,86.01
2018-11-06T08:37:27.605Z,85.55
2018-11-06T08:39:55.988Z,86.44
2018-11-06T08:42:25.376Z,86.83
2018-11-06T08:44:53.838Z,86.67
2018-11-06T08:47:22.340Z,86.12
2018-11-06T08:49:50.341Z,86.00
2018-11-06T08:52:19.241Z,86.50
2018-11-06T08:54:47.504Z,86.00
2018-11-06T08:57:16.249Z,86.18
2018-11-06T08:59:45.409Z,85.41
2018-11-06T09:02:17.374Z,85.79
2018-11-06T09:04:45.198Z,85.64
2018-11-06T09:07:12.910Z,86.41
2018-11-06T09:09:40.649Z,85.39
2018-11-06T09:12:08.322Z,85.01
2018-11-06T09:14:36.753Z,84.18
2018-11-06T09:17:05.045Z,84.54
2018-11-06T09:19:33.308Z,84.75
2018-11-06T09:22:01.565Z,84.93
2018-11-06T09:24:29.380Z,84.95
2018-11-06T09:26:57.736Z,85.40
2018-11-06T09:29:25.407Z,85.60
2018-11-06T09:31:53.617Z,85.63
2018-11-06T09:34:21.482Z,84.46
2018-11-06T09:36:49.333Z,84.48
2018-11-06T09:39:18.049Z,84.81
2018-11-06T09:41:46.218Z,84.93
2018-11-06T09:44:14.949Z,84.58
2018-11-06T09:46:43.683Z,85.14
2018-11-06T09:49:12.045Z,85.06
2018-11-06T09:51:40.062Z,84.31
2018-11-06T09:54:08.540Z,83.80
2018-11-06T09:56:36.638Z,84.82
2018-11-06T09:59:04.916Z,84.20
2018-11-06T10:01:33.277Z,84.43
2018-11-06T10:04:02.064Z,83.68
2018-11-06T10:06:30.318Z,83.70
2018-11-06T10:08:58.865Z,84.79
2018-11-06T10:11:27.117Z,83.28
2018-11-06T10:13:55.837Z,83.17
2018-11-06T10:16:24.317Z,81.80
2018-11-06T10:18:52.909Z,82.65
2018-11-06T10:21:21.821Z,82.73
2018-11-06T10:23:49.772Z,82.64
2018-11-06T10:26:17.530Z,83.28
2018-11-06T10:28:45.225Z,81.46
2018-11-06T10:31:12.977Z,83.00
2018-11-06T10:33:40.693Z,81.52
2018-11-06T10:36:08.467Z,81.59
2018-11-06T10:38:36.215Z,81.27
2018-11-06T10:41:03.916Z,81.55
2018-11-06T10:43:31.612Z,81.19
2018-11-06T10:45:59.321Z,80.38
2018-11-06T10:48:27.072Z,80.92
2018-11-06T10:50:54.836Z,80.68
2018-11-06T10:53:22.555Z,80.52
2018-11-06T10:55:50.274Z,79.93
2018-11-06T10:58:18.029Z,78.46
2018-11-06T11:00:51.249Z,80.13
2018-11-06T11:03:24.648Z,80.77
2018-11-06T11:05:52.358Z,79.92
2018-11-06T11:08:20.096Z,80.36
2018-11-06T11:10:51.396Z,78.57
2018-11-06T11:13:19.258Z,79.58
2018-11-06T11:15:46.880Z,79.16
2018-11-06T11:18:14.532Z,77.72
2018-11-06T11:20:42.210Z,79.11
2018-11-06T11:23:09.896Z,77.42
2018-11-06T11:25:37.614Z,77.22
2018-11-06T11:28:05.352Z,75.61
2018-11-06T11:30:33.125Z,75.82
2018-11-06T11:33:00.838Z,76.47
2018-11-06T11:35:28.590Z,76.05
2018-11-06T11:37:56.290Z,76.02
2018-11-06T11:40:24.000Z,75.75
2018-11-06T11:42:51.721Z,72.19
2018-11-06T11:45:19.434Z,74.74
2018-11-06T11:47:47.140Z,75.39
2018-11-06T11:50:15.470Z,76.47
2018-11-06T11:52:43.397Z,76.38
2018-11-06T11:55:11.201Z,74.03
2018-11-06T11:57:39.189Z,75.09
2018-11-06T12:00:09.645Z,75.96
2018-11-06T12:02:37.282Z,75.31
2018-11-06T12:05:06.757Z,75.67
2018-11-06T12:07:34.484Z,73.09
2018-11-06T12:10:02.245Z,74.98
2018-11-06T12:12:30.208Z,74.79
2018-11-06T12:14:59.020Z,73.78
2018-11-06T12:17:26.879Z,74.27
2018-11-06T12:19:54.614Z,74.60
2018-11-06T12:22:22.292Z,74.63
2018-11-06T12:24:50.126Z,73.18
2018-11-06T12:27:17.672Z,74.20
2018-11-06T12:29:45.397Z,74.88
2018-11-06T12:32:13.141Z,72.68
2018-11-06T12:34:40.877Z,74.98
2018-11-06T12:37:08.716Z,74.60
2018-11-06T12:39:36.391Z,74.54
2018-11-06T12:42:04.600Z,74.58
2018-11-06T12:44:32.342Z,72.37
2018-11-06T12:47:00.048Z,74.77
2018-11-06T12:49:27.721Z,74.34
2018-11-06T12:51:55.435Z,74.27
2018-11-06T12:54:23.165Z,74.20
2018-11-06T12:56:50.908Z,73.95
2018-11-06T12:59:18.617Z,74.13
2018-11-06T13:01:46.452Z,73.62
2018-11-06T13:04:14.118Z,73.88
2018-11-06T13:06:41.839Z,73.87
2018-11-06T13:09:10.580Z,73.54
2018-11-06T13:11:38.530Z,73.22
2018-11-06T13:14:06.854Z,72.91
2018-11-06T13:16:34.916Z,73.50
2018-11-06T13:19:02.608Z,72.51
2018-11-06T13:21:30.273Z,72.37
2018-11-06T13:23:57.986Z,70.89
2018-11-06T13:26:25.863Z,72.61
2018-11-06T13:28:53.405Z,71.35
2018-11-06T13:31:21.071Z,72.59
2018-11-06T13:33:48.777Z,71.61
2018-11-06T13:36:16.485Z,72.16
2018-11-06T13:38:44.136Z,70.19
2018-11-06T13:41:11.820Z,72.67
2018-11-06T13:43:39.727Z,70.98
2018-11-06T13:46:07.316Z,72.32
2018-11-06T13:48:35.077Z,71.75
2018-11-06T13:51:02.753Z,72.49
2018-11-06T13:53:30.456Z,71.02
2018-11-06T13:55:58.137Z,72.78
2018-11-06T13:58:25.797Z,72.82
2018-11-06T14:00:53.485Z,72.72
2018-11-06T14:03:21.145Z,73.04
2018-11-06T14:05:48.888Z,72.77
2018-11-06T14:08:16.574Z,73.15
2018-11-06T14:10:44.217Z,73.17
2018-11-06T14:13:11.949Z,71.08
2018-11-06T14:15:39.676Z,72.01
2018-11-06T14:18:07.418Z,72.61
2018-11-06T14:20:35.146Z,72.84
2018-11-06T14:23:02.912Z,73.03
2018-11-06T14:25:30.654Z,71.51
2018-11-06T14:27:58.324Z,72.21
2018-11-06T14:30:26.053Z,71.28
2018-11-06T14:32:53.781Z,71.81
2018-11-06T14:35:21.455Z,70.70
2018-11-06T14:37:49.301Z,71.25
2018-11-06T14:40:17.346Z,71.48
2018-11-06T14:42:45.449Z,71.38
2018-11-06T14:45:15.637Z,71.79
2018-11-06T14:47:44.078Z,72.14
2018-11-06T14:50:12.205Z,72.36
2018-11-06T14:52:39.937Z,72.34
2018-11-06T14:55:09.927Z,72.02
2018-11-06T14:57:37.638Z,72.62
2018-11-06T15:00:11.460Z,72.50
2018-11-06T15:02:39.568Z,72.89
2018-11-06T15:05:07.306Z,73.07
2018-11-06T15:07:35.022Z,73.19
2018-11-06T15:10:03.005Z,73.27
2018-11-06T15:12:30.771Z,72.73
2018-11-06T15:14:58.556Z,73.41
2018-11-06T15:17:26.309Z,73.43
2018-11-06T15:19:54.038Z,73.37
2018-11-06T15:22:21.677Z,73.52
2018-11-06T15:24:49.292Z,73.34
2018-11-06T15:27:17.269Z,73.86
2018-11-06T15:29:45.000Z,74.07
2018-11-06T15:32:12.726Z,73.98
2018-11-06T15:34:41.102Z,74.25
2018-11-06T15:37:09.265Z,74.18
2018-11-06T15:39:37.046Z,74.34
2018-11-06T15:42:04.791Z,73.97
2018-11-06T15:44:32.556Z,74.80
2018-11-06T15:47:00.413Z,74.42
2018-11-06T15:49:28.165Z,75.08
2018-11-06T15:51:55.861Z,75.22
2018-11-06T15:54:23.570Z,75.67
2018-11-06T15:56:51.210Z,75.50
2018-11-06T15:59:18.926Z,75.58
2018-11-06T16:01:46.717Z,75.92
2018-11-06T16:04:14.351Z,76.01
2018-11-06T16:06:42.113Z,76.17
2018-11-06T16:09:09.813Z,76.00
2018-11-06T16:11:37.584Z,76.71
2018-11-06T16:14:05.301Z,76.76
2018-11-06T16:16:33.434Z,76.18
2018-11-06T16:19:01.322Z,76.34
2018-11-06T16:21:29.091Z,76.20
2018-11-06T16:23:57.551Z,76.14
2018-11-06T16:26:25.588Z,76.99
2018-11-06T16:28:53.378Z,77.18
2018-11-06T16:31:21.053Z,77.16
2018-11-06T16:33:48.877Z,77.21
2018-11-06T16:36:16.665Z,77.08
2018-11-06T16:38:44.433Z,77.23
2018-11-06T16:41:12.125Z,77.69
2018-11-06T16:43:39.872Z,77.25
2018-11-06T16:46:07.591Z,78.21
2018-11-06T16:48:35.399Z,77.22
2018-11-06T16:51:05.780Z,77.13
2018-11-06T16:53:33.620Z,77.46
2018-11-06T16:56:01.339Z,79.01
2018-11-06T16:58:29.085Z,79.94
2018-11-06T17:00:56.986Z,78.49
2018-11-06T17:03:24.567Z,77.16
2018-11-06T17:05:52.260Z,77.56
2018-11-06T17:08:19.970Z,77.34
2018-11-06T17:10:47.725Z,77.94
2018-11-06T17:13:15.451Z,78.11
2018-11-06T17:15:43.160Z,78.08
2018-11-06T17:18:10.845Z,77.48
2018-11-06T17:20:38.641Z,77.73
2018-11-06T17:23:06.324Z,77.80
2018-11-06T17:25:34.114Z,77.60
2018-11-06T17:28:01.733Z,77.30
2018-11-06T17:30:29.414Z,77.33
2018-11-06T17:32:57.075Z,77.31
2018-11-06T17:35:24.699Z,77.74
2018-11-06T17:37:52.431Z,78.22
2018-11-06T17:40:20.704Z,78.48
2018-11-06T17:42:48.481Z,78.56
2018-11-06T17:45:17.741Z,78.69
2018-11-06T17:47:45.380Z,78.65
2018-11-06T17:50:14.158Z,78.63
2018-11-06T17:52:41.832Z,78.49
2018-11-06T17:55:11.196Z,78.27
2018-11-06T17:57:39.413Z,78.83
2018-11-06T18:00:11.725Z,79.37
2018-11-06T18:02:39.650Z,80.18
2018-11-06T18:05:07.850Z,80.23
2018-11-06T18:07:35.558Z,79.22
2018-11-06T18:10:03.321Z,80.12
2018-11-06T18:12:30.985Z,80.68
2018-11-06T18:14:58.677Z,81.19
2018-11-06T18:17:26.408Z,81.03
2018-11-06T18:19:54.013Z,81.89
2018-11-06T18:22:21.761Z,81.23
2018-11-06T18:24:49.442Z,80.86
2018-11-06T18:27:17.102Z,80.13
2018-11-06T18:29:45.109Z,79.95
2018-11-06T18:32:13.238Z,80.59
2018-11-06T18:34:40.957Z,80.03
2018-11-06T18:37:08.645Z,80.48
2018-11-06T18:39:36.338Z,79.38
2018-11-06T18:42:04.245Z,79.39
2018-11-06T18:44:31.964Z,79.57
2018-11-06T18:46:59.674Z,79.50
2018-11-06T18:49:27.397Z,78.61
2018-11-06T18:51:55.137Z,79.92
2018-11-06T18:54:23.265Z,80.23
2018-11-06T18:56:50.940Z,79.48
2018-11-06T18:59:18.608Z,79.14
2018-11-06T19:01:46.308Z,79.33
2018-11-06T19:04:14.013Z,78.66
2018-11-06T19:06:41.713Z,79.23
2018-11-06T19:09:10.969Z,79.50
2018-11-06T19:11:38.940Z,79.17
2018-11-06T19:14:06.730Z,79.25
2018-11-06T19:16:34.497Z,78.65
2018-11-06T19:19:02.206Z,79.86
2018-11-06T19:21:31.096Z,81.66
2018-11-06T19:23:58.909Z,80.24
2018-11-06T19:26:26.585Z,80.51
2018-11-06T19:28:54.484Z,80.02
2018-11-06T19:31:22.221Z,79.48
2018-11-06T19:33:49.873Z,80.60
2018-11-06T19:36:17.673Z,79.80
2018-11-06T19:38:45.396Z,80.75
2018-11-06T19:41:13.106Z,81.00
2018-11-06T19:43:40.796Z,79.49
2018-11-06T19:46:08.542Z,78.99
2018-11-06T19:48:36.238Z,79.85
2018-11-06T19:51:04.029Z,80.28
2018-11-06T19:53:31.851Z,80.63
2018-11-06T19:55:59.453Z,81.30
2018-11-06T19:58:27.190Z,81.14
2018-11-06T20:00:54.891Z,81.86
2018-11-06T20:03:25.344Z,81.24
2018-11-06T20:05:53.192Z,80.27
2018-11-06T20:08:20.805Z,79.03
2018-11-06T20:10:48.461Z,80.60
2018-11-06T20:13:16.664Z,78.97
2018-11-06T20:15:44.414Z,80.04
2018-11-06T20:18:12.122Z,80.50
2018-11-06T20:20:39.781Z,79.57
2018-11-06T20:23:07.423Z,79.90
2018-11-06T20:25:35.116Z,81.44
2018-11-06T20:28:02.821Z,80.71
2018-11-06T20:30:30.525Z,81.51
2018-11-06T20:32:58.250Z,81.73
2018-11-06T20:35:25.985Z,82.52
2018-11-06T20:37:53.696Z,81.72
2018-11-06T20:40:22.788Z,82.19
2018-11-06T20:42:50.575Z,80.94
2018-11-06T20:45:19.012Z,82.40
2018-11-06T20:47:46.738Z,82.15
2018-11-06T20:50:16.235Z,82.00
2018-11-06T20:52:44.095Z,83.41
2018-11-06T20:55:12.887Z,82.67
2018-11-06T20:57:40.552Z,83.04
2018-11-06T21:00:16.445Z,83.70
2018-11-06T21:02:44.196Z,83.27
2018-11-06T21:05:12.541Z,83.76
2018-11-06T21:07:40.209Z,84.13
2018-11-06T21:10:08.013Z,82.47
2018-11-06T21:12:35.787Z,84.19
2018-11-06T21:15:03.745Z,82.98
2018-11-06T21:17:31.477Z,82.69
2018-11-06T21:19:59.277Z,82.86
2018-11-06T21:22:26.858Z,83.08
2018-11-06T21:24:54.706Z,82.26
2018-11-06T21:27:22.281Z,82.92
2018-11-06T21:29:49.949Z,83.03
2018-11-06T21:32:17.668Z,82.10
2018-11-06T21:34:45.361Z,82.01
2018-11-06T21:37:13.100Z,82.25
2018-11-06T21:39:40.826Z,83.28
2018-11-06T21:42:08.588Z,83.25
2018-11-06T21:44:36.192Z,83.07
2018-11-06T21:47:04.078Z,82.75
2018-11-06T21:49:31.858Z,81.72
2018-11-06T21:51:59.492Z,82.78
2018-11-06T21:54:27.179Z,82.48
2018-11-06T21:56:54.902Z,84.18
2018-11-06T21:59:22.565Z,84.78
2018-11-06T22:01:50.773Z,84.13
2018-11-06T22:04:18.448Z,83.11
2018-11-06T22:06:46.141Z,82.31
2018-11-06T22:09:13.869Z,82.54
2018-11-06T22:11:41.561Z,83.10
2018-11-06T22:14:09.293Z,84.41
2018-11-06T22:16:37.669Z,84.15
2018-11-06T22:19:05.429Z,83.75
2018-11-06T22:21:33.209Z,83.98
2018-11-06T22:24:00.858Z,82.97
2018-11-06T22:26:28.661Z,84.47
2018-11-06T22:28:56.380Z,84.58
2018-11-06T22:31:24.175Z,83.25
2018-11-06T22:33:51.797Z,84.70
2018-11-06T22:36:19.445Z,84.71
2018-11-06T22:38:47.185Z,84.03
2018-11-06T22:41:14.896Z,83.89
2018-11-06T22:43:42.637Z,83.87
2018-11-06T22:46:10.308Z,84.24
2018-11-06T22:48:38.090Z,83.67
2018-11-06T22:51:06.338Z,84.04
2018-11-06T22:53:34.037Z,84.14
2018-11-06T22:56:01.752Z,84.75
2018-11-06T22:58:29.461Z,84.50
2018-11-06T23:01:02.838Z,84.35
2018-11-06T23:03:30.521Z,84.39
2018-11-06T23:05:58.342Z,84.37
2018-11-06T23:08:26.865Z,84.31
2018-11-06T23:10:54.893Z,84.00
2018-11-06T23:13:25.700Z,83.75
2018-11-06T23:15:53.376Z,83.41
2018-11-06T23:18:21.133Z,83.78
2018-11-06T23:20:48.789Z,84.30
2018-11-06T23:23:16.513Z,83.68
2018-11-06T23:25:44.338Z,83.89
2018-11-06T23:28:12.095Z,83.79
2018-11-06T23:30:39.841Z,83.82
2018-11-06T23:33:07.564Z,83.75
2018-11-06T23:35:35.290Z,83.19
2018-11-06T23:38:02.990Z,83.10
2018-11-06T23:40:30.673Z,83.46
2018-11-06T23:42:58.413Z,84.14
2018-11-06T23:45:26.155Z,83.71
2018-11-06T23:47:53.856Z,84.72
2018-11-06T23:50:21.609Z,83.98
2018-11-06T23:52:49.316Z,83.53
2018-11-06T23:55:17.057Z,83.05
2018-11-06T23:57:44.800Z,83.17
